createdAt,value
2022-10-27T00:02:35.837Z,67.41
2022-10-27T00:05:41.655Z,66.73
2022-10-27T00:08:47.206Z,65.50
2022-10-27T00:11:52.608Z,64.78
2022-10-27T00:14:58.101Z,64.74
2022-10-27T00:18:08.152Z,64.49
2022-10-27T00:21:16.110Z,64.38
2022-10-27T00:24:22.025Z,64.37
2022-10-27T00:27:28.393Z,64.08
2022-10-27T00:30:33.934Z,63.91
2022-10-27T00:33:39.588Z,64.01
2022-10-27T00:36:45.139Z,63.91
2022-10-27T00:39:50.993Z,63.76
2022-10-27T00:42:56.433Z,63.84
2022-10-27T00:46:06.438Z,63.77
2022-10-27T00:49:15.270Z,64.82
2022-10-27T00:52:26.812Z,65.49
2022-10-27T00:55:35.841Z,64.69
2022-10-27T00:58:42.855Z,64.15
2022-10-27T01:01:50.577Z,63.88
2022-10-27T01:05:01.247Z,63.78
2022-10-27T01:08:08.692Z,63.95
2022-10-27T01:11:14.282Z,64.32
2022-10-27T01:14:19.764Z,63.88
2022-10-27T01:17:40.131Z,64.02
2022-10-27T01:21:04.328Z,64.45
2022-10-27T01:24:35.521Z,65.24
2022-10-27T01:28:19.981Z,65.67
2022-10-27T01:31:29.257Z,66.22
2022-10-27T01:34:42.139Z,66.29
2022-10-27T01:37:53.685Z,66.20
2022-10-27T01:41:03.926Z,66.26
2022-10-27T01:44:16.553Z,66.23
2022-10-27T01:47:24.101Z,66.39
2022-10-27T01:50:45.449Z,66.63
2022-10-27T01:54:00.594Z,67.00
2022-10-27T01:57:18.332Z,66.75
2022-10-27T02:00:23.982Z,65.40
2022-10-27T02:03:36.661Z,64.38
2022-10-27T02:06:50.135Z,64.12
2022-10-27T02:10:00.599Z,64.13
2022-10-27T02:13:06.893Z,63.95
2022-10-27T02:16:13.539Z,63.73
2022-10-27T02:19:23.948Z,63.87
2022-10-27T02:22:33.168Z,63.61
2022-10-27T02:25:46.266Z,63.61
2022-10-27T02:28:57.261Z,63.62
2022-10-27T02:32:06.441Z,64.55
2022-10-27T02:35:13.859Z,65.15
2022-10-27T02:38:19.524Z,65.69
2022-10-27T02:41:25.050Z,65.53
2022-10-27T02:44:30.519Z,65.54
2022-10-27T02:47:36.068Z,64.68
2022-10-27T02:50:41.637Z,64.35
2022-10-27T02:53:47.168Z,64.03
2022-10-27T02:56:52.819Z,63.73
2022-10-27T02:59:58.268Z,64.01
2022-10-27T03:03:03.917Z,65.34
2022-10-27T03:06:09.557Z,66.22
2022-10-27T03:09:15.120Z,66.64
2022-10-27T03:12:20.565Z,66.90
2022-10-27T03:15:26.116Z,67.01
2022-10-27T03:18:31.562Z,67.36
2022-10-27T03:21:37.010Z,67.56
2022-10-27T03:24:42.504Z,67.55
2022-10-27T03:27:48.006Z,67.19
2022-10-27T03:30:53.759Z,67.14
2022-10-27T03:33:59.167Z,66.95
2022-10-27T03:37:04.654Z,66.21
2022-10-27T03:40:12.742Z,65.39
2022-10-27T03:43:18.314Z,64.70
2022-10-27T03:46:23.761Z,65.11
2022-10-27T03:49:29.335Z,65.04
2022-10-27T03:52:34.960Z,66.55
2022-10-27T03:55:40.407Z,67.17
2022-10-27T03:58:45.956Z,67.29
2022-10-27T04:01:51.788Z,66.59
2022-10-27T04:05:00.046Z,66.00
2022-10-27T04:08:05.664Z,65.21
2022-10-27T04:11:11.126Z,64.97
2022-10-27T04:14:16.557Z,65.49
2022-10-27T04:17:22.121Z,65.79
2022-10-27T04:20:28.697Z,65.88
2022-10-27T04:23:34.345Z,65.34
2022-10-27T04:26:39.793Z,64.98
2022-10-27T04:29:45.205Z,64.38
2022-10-27T04:32:54.592Z,64.08
2022-10-27T04:36:00.885Z,64.05
2022-10-27T04:39:04.842Z,64.00
2022-10-27T04:42:11.741Z,64.03
2022-10-27T04:45:17.948Z,63.80
2022-10-27T04:48:23.451Z,64.11
2022-10-27T04:51:28.942Z,64.51
2022-10-27T04:54:34.550Z,64.51
2022-10-27T04:57:39.960Z,64.51
2022-10-27T05:00:45.397Z,64.44
2022-10-27T05:03:51.128Z,65.18
2022-10-27T05:06:56.544Z,64.66
2022-10-27T05:10:01.954Z,64.18
2022-10-27T05:13:07.406Z,64.12
2022-10-27T05:16:12.883Z,64.11
2022-10-27T05:19:18.332Z,63.91
2022-10-27T05:22:23.732Z,63.85
2022-10-27T05:25:29.315Z,64.07
2022-10-27T05:28:35.084Z,64.14
2022-10-27T05:31:40.508Z,64.14
2022-10-27T05:34:46.080Z,64.35
2022-10-27T05:37:51.969Z,65.21
2022-10-27T05:41:00.965Z,66.65
2022-10-27T05:44:06.677Z,67.24
2022-10-27T05:47:12.474Z,67.16
2022-10-27T05:50:18.208Z,67.40
2022-10-27T05:53:23.930Z,67.60
2022-10-27T05:56:29.431Z,67.75
2022-10-27T05:59:34.878Z,67.84
2022-10-27T06:02:40.310Z,67.95
2022-10-27T06:05:45.873Z,68.10
2022-10-27T06:08:51.297Z,67.88
2022-10-27T06:11:56.754Z,67.52
2022-10-27T06:15:02.315Z,67.82
2022-10-27T06:18:08.069Z,68.21
2022-10-27T06:21:13.776Z,68.33
2022-10-27T06:24:19.164Z,68.49
2022-10-27T06:27:24.718Z,68.62
2022-10-27T06:30:30.168Z,68.43
2022-10-27T06:33:35.714Z,68.62
2022-10-27T06:36:41.160Z,69.41
2022-10-27T06:39:47.428Z,69.66
2022-10-27T06:43:08.186Z,69.68
2022-10-27T06:46:14.277Z,69.71
2022-10-27T06:49:20.052Z,70.63
2022-10-27T06:52:25.812Z,70.45
2022-10-27T06:55:31.718Z,70.00
2022-10-27T06:58:39.522Z,69.46
2022-10-27T07:01:45.105Z,69.80
2022-10-27T07:04:50.665Z,70.67
2022-10-27T07:07:57.482Z,71.14
2022-10-27T07:11:03.094Z,71.72
2022-10-27T07:14:08.747Z,71.99
2022-10-27T07:17:14.200Z,72.48
2022-10-27T07:20:19.641Z,73.20
2022-10-27T07:23:25.073Z,73.71
2022-10-27T07:26:30.841Z,74.20
2022-10-27T07:29:36.289Z,74.47
2022-10-27T07:32:41.837Z,74.58
2022-10-27T07:35:51.101Z,74.95
2022-10-27T07:38:57.017Z,75.09
2022-10-27T07:42:03.195Z,75.51
2022-10-27T07:45:10.489Z,75.22
2022-10-27T07:48:17.624Z,74.95
2022-10-27T07:51:23.326Z,74.80
2022-10-27T07:54:29.721Z,74.54
2022-10-27T07:57:35.244Z,74.63
2022-10-27T08:00:42.638Z,75.24
2022-10-27T08:03:51.111Z,76.02
2022-10-27T08:06:57.012Z,76.69
2022-10-27T08:10:02.971Z,76.78
2022-10-27T08:13:10.000Z,77.26
2022-10-27T08:16:15.605Z,77.44
2022-10-27T08:19:21.377Z,77.74
2022-10-27T08:22:27.056Z,77.91
2022-10-27T08:25:33.193Z,77.89
2022-10-27T08:28:38.615Z,78.09
2022-10-27T08:31:44.024Z,78.02
2022-10-27T08:34:51.593Z,77.73
2022-10-27T08:38:02.597Z,77.61
2022-10-27T08:41:21.150Z,77.88
2022-10-27T08:44:33.095Z,77.69
2022-10-27T08:47:38.850Z,77.57
2022-10-27T08:50:46.060Z,77.49
2022-10-27T08:53:55.133Z,76.96
2022-10-27T08:57:04.510Z,76.51
2022-10-27T09:00:15.399Z,76.09
2022-10-27T09:03:37.832Z,75.88
2022-10-27T09:06:57.564Z,75.21
2022-10-27T09:10:07.359Z,75.39
2022-10-27T09:13:27.172Z,74.77
2022-10-27T09:16:39.972Z,74.99
2022-10-27T09:19:49.709Z,74.76
2022-10-27T09:22:57.409Z,74.04
2022-10-27T09:26:02.896Z,73.51
2022-10-27T09:29:17.519Z,72.92
2022-10-27T09:32:27.472Z,72.49
2022-10-27T09:35:32.919Z,72.14
2022-10-27T09:38:38.688Z,71.45
2022-10-27T09:41:44.428Z,70.87
2022-10-27T09:44:55.612Z,71.27
2022-10-27T09:48:07.448Z,70.17
2022-10-27T09:51:20.429Z,69.48
2022-10-27T09:54:34.161Z,69.23
2022-10-27T09:57:42.179Z,68.34
2022-10-27T10:00:56.538Z,68.30
2022-10-27T10:04:17.085Z,67.99
2022-10-27T10:07:40.367Z,67.25
2022-10-27T10:10:57.222Z,67.28
2022-10-27T10:14:04.151Z,66.80
2022-10-27T10:17:27.759Z,66.89
2022-10-27T10:20:39.565Z,65.82
2022-10-27T10:23:54.238Z,65.61
2022-10-27T10:27:01.932Z,65.72
2022-10-27T10:30:19.198Z,64.94
2022-10-27T10:33:27.470Z,64.83
2022-10-27T10:36:38.558Z,64.11
2022-10-27T10:39:44.098Z,64.97
2022-10-27T10:43:01.319Z,64.03
2022-10-27T10:46:08.514Z,62.30
2022-10-27T10:49:23.345Z,62.25
2022-10-27T10:52:34.875Z,61.74
2022-10-27T10:55:41.130Z,60.67
2022-10-27T10:58:47.508Z,61.42
2022-10-27T11:01:57.502Z,60.76
2022-10-27T11:05:15.650Z,59.85
2022-10-27T11:08:24.359Z,59.55
2022-10-27T11:11:37.554Z,61.65
2022-10-27T11:14:46.706Z,60.85
2022-10-27T11:17:57.661Z,59.00
2022-10-27T11:21:08.656Z,60.63
2022-10-27T11:24:21.461Z,60.41
2022-10-27T11:27:33.881Z,58.19
2022-10-27T11:30:47.101Z,57.79
2022-10-27T11:33:58.995Z,57.97
2022-10-27T11:37:08.642Z,58.59
2022-10-27T11:40:23.419Z,60.59
2022-10-27T11:43:34.661Z,59.90
2022-10-27T11:46:44.614Z,58.55
2022-10-27T11:49:55.214Z,57.09
2022-10-27T11:53:02.088Z,56.87
2022-10-27T11:56:21.583Z,57.91
2022-10-27T11:59:38.998Z,59.21
2022-10-27T12:03:09.130Z,57.37
2022-10-27T12:06:22.767Z,57.60
2022-10-27T12:09:40.902Z,60.26
2022-10-27T12:12:49.078Z,60.46
2022-10-27T12:16:00.504Z,57.34
2022-10-27T12:19:11.787Z,55.95
2022-10-27T12:22:23.584Z,55.59
2022-10-27T12:25:34.418Z,56.80
2022-10-27T12:28:40.301Z,57.23
2022-10-27T12:31:47.703Z,57.83
2022-10-27T12:34:59.460Z,57.02
2022-10-27T12:38:13.142Z,58.39
2022-10-27T12:41:29.035Z,57.87
2022-10-27T12:44:46.210Z,58.48
2022-10-27T12:48:01.677Z,58.80
2022-10-27T12:51:23.465Z,58.26
2022-10-27T12:58:02.932Z,58.64
2022-10-27T13:01:15.632Z,57.97
2022-10-27T13:04:45.470Z,58.75
2022-10-27T13:08:15.389Z,59.32
2022-10-27T13:11:35.065Z,60.07
2022-10-27T13:15:17.686Z,59.14
2022-10-27T13:18:58.474Z,58.34
2022-10-27T13:22:12.572Z,58.93
2022-10-27T13:25:22.706Z,58.99
2022-10-27T13:28:34.363Z,59.95
2022-10-27T13:31:40.316Z,59.63
2022-10-27T13:34:44.541Z,59.10
2022-10-27T13:38:10.771Z,59.33
2022-10-27T13:42:07.583Z,59.77
2022-10-27T13:45:43.893Z,60.06
2022-10-27T13:48:53.353Z,61.44
2022-10-27T13:55:37.957Z,57.73
2022-10-27T13:58:57.705Z,57.50
2022-10-27T14:02:10.943Z,57.69
2022-10-27T14:05:26.802Z,58.47
2022-10-27T14:08:31.860Z,58.53
2022-10-27T14:11:37.619Z,58.17
2022-10-27T14:14:43.785Z,58.56
2022-10-27T14:17:50.861Z,59.24
2022-10-27T14:21:00.470Z,59.49
2022-10-27T14:24:11.486Z,59.40
2022-10-27T14:27:18.881Z,59.67
2022-10-27T14:30:25.129Z,59.64
2022-10-27T14:33:30.694Z,59.68
2022-10-27T14:36:38.289Z,59.84
2022-10-27T14:39:44.155Z,59.79
2022-10-27T14:42:50.973Z,59.91
2022-10-27T14:46:01.288Z,59.98
2022-10-27T14:49:10.664Z,60.03
2022-10-27T14:52:21.503Z,60.24
2022-10-27T14:55:33.707Z,60.36
2022-10-27T14:58:39.255Z,60.64
2022-10-27T15:01:45.692Z,62.26
2022-10-27T15:04:51.273Z,62.77
2022-10-27T15:07:59.792Z,61.84
2022-10-27T15:11:08.675Z,60.97
2022-10-27T15:14:14.170Z,60.12
2022-10-27T15:17:24.633Z,58.82
2022-10-27T15:20:30.287Z,58.91
2022-10-27T15:23:36.577Z,60.05
2022-10-27T15:26:42.445Z,61.24
2022-10-27T15:29:52.396Z,63.92
2022-10-27T15:32:57.910Z,64.35
2022-10-27T15:36:20.193Z,63.20
2022-10-27T15:39:26.319Z,62.32
2022-10-27T15:42:39.368Z,62.00
2022-10-27T15:45:45.857Z,61.86
2022-10-27T15:48:57.207Z,61.60
2022-10-27T15:52:07.823Z,61.33
2022-10-27T15:55:24.918Z,61.04
2022-10-27T15:58:32.904Z,60.93
2022-10-27T16:01:38.781Z,60.74
2022-10-27T16:04:47.334Z,60.96
2022-10-27T16:07:55.346Z,61.42
2022-10-27T16:11:01.030Z,60.89
2022-10-27T16:14:12.160Z,61.11
2022-10-27T16:17:20.662Z,61.32
2022-10-27T16:20:29.158Z,61.44
2022-10-27T16:23:34.698Z,61.12
2022-10-27T16:26:40.441Z,60.88
2022-10-27T16:29:45.990Z,61.03
2022-10-27T16:32:57.694Z,60.92
2022-10-27T16:36:03.082Z,61.12
2022-10-27T16:39:08.589Z,61.13
2022-10-27T16:42:14.311Z,60.81
2022-10-27T16:45:21.560Z,60.59
2022-10-27T16:48:27.185Z,60.47
2022-10-27T16:51:32.650Z,60.65
2022-10-27T16:54:39.103Z,60.84
2022-10-27T16:57:47.243Z,60.81
2022-10-27T17:00:55.151Z,60.69
2022-10-27T17:04:04.401Z,60.68
2022-10-27T17:07:10.005Z,60.61
2022-10-27T17:10:16.979Z,60.65
2022-10-27T17:13:22.648Z,61.58
2022-10-27T17:16:28.073Z,62.35
2022-10-27T17:19:33.622Z,62.15
2022-10-27T17:22:39.594Z,61.44
2022-10-27T17:25:45.043Z,61.15
2022-10-27T17:28:52.281Z,61.10
2022-10-27T17:31:57.735Z,60.90
2022-10-27T17:35:03.226Z,60.73
2022-10-27T17:38:08.674Z,60.47
2022-10-27T17:41:14.222Z,60.32
2022-10-27T17:44:19.772Z,60.54
2022-10-27T17:47:25.562Z,60.68
2022-10-27T17:50:32.646Z,60.87
2022-10-27T17:53:39.433Z,61.03
2022-10-27T17:56:44.859Z,61.20
2022-10-27T17:59:50.386Z,61.69
2022-10-27T18:02:55.974Z,62.34
2022-10-27T18:06:03.946Z,61.74
2022-10-27T18:09:11.082Z,62.37
2022-10-27T18:12:16.578Z,62.72
2022-10-27T18:15:35.582Z,62.82
2022-10-27T18:18:42.364Z,62.73
2022-10-27T18:21:49.503Z,62.36
2022-10-27T18:24:54.950Z,62.11
2022-10-27T18:28:00.720Z,61.99
2022-10-27T18:31:11.304Z,62.26
2022-10-27T18:34:17.065Z,62.62
2022-10-27T18:37:22.581Z,61.99
2022-10-27T18:40:28.131Z,61.84
2022-10-27T18:43:33.934Z,61.67
2022-10-27T18:46:39.435Z,61.53
2022-10-27T18:49:48.795Z,61.43
2022-10-27T18:52:55.032Z,61.63
2022-10-27T18:56:02.965Z,61.74
2022-10-27T18:59:08.435Z,61.69
2022-10-27T19:02:14.186Z,62.27
2022-10-27T19:05:19.770Z,62.80
2022-10-27T19:08:25.756Z,63.10
2022-10-27T19:11:31.752Z,63.56
2022-10-27T19:14:37.192Z,63.99
2022-10-27T19:17:43.121Z,63.57
2022-10-27T19:20:48.672Z,63.43
2022-10-27T19:23:58.112Z,63.66
2022-10-27T19:27:03.655Z,64.18
2022-10-27T19:30:11.311Z,64.72
2022-10-27T19:33:16.807Z,64.67
2022-10-27T19:36:24.450Z,64.26
2022-10-27T19:39:29.886Z,64.34
2022-10-27T19:42:36.673Z,63.86
2022-10-27T19:45:49.412Z,63.45
2022-10-27T19:48:56.481Z,63.08
2022-10-27T19:52:01.983Z,62.74
2022-10-27T19:55:08.717Z,62.56
2022-10-27T19:58:14.112Z,62.42
2022-10-27T20:01:22.043Z,62.21
2022-10-27T20:04:27.767Z,62.17
2022-10-27T20:07:33.212Z,62.19
2022-10-27T20:10:41.937Z,62.33
2022-10-27T20:13:48.724Z,62.30
2022-10-27T20:16:54.264Z,62.40
2022-10-27T20:19:59.916Z,62.37
2022-10-27T20:23:06.080Z,62.42
2022-10-27T20:26:29.984Z,62.61
2022-10-27T20:29:36.004Z,62.81
2022-10-27T20:32:43.689Z,62.89
2022-10-27T20:35:49.782Z,62.89
2022-10-27T20:38:56.662Z,62.98
2022-10-27T20:42:02.064Z,62.83
2022-10-27T20:45:09.095Z,62.65
2022-10-27T20:48:14.540Z,62.86
2022-10-27T20:51:21.601Z,63.00
2022-10-27T20:54:27.162Z,62.89
2022-10-27T20:57:32.725Z,62.75
2022-10-27T21:00:38.168Z,62.62
2022-10-27T21:03:43.605Z,62.80
2022-10-27T21:06:52.239Z,63.63
2022-10-27T21:09:57.690Z,63.52
2022-10-27T21:13:03.122Z,63.00
2022-10-27T21:16:09.521Z,62.77
2022-10-27T21:19:14.951Z,62.71
2022-10-27T21:22:20.601Z,62.82
2022-10-27T21:25:27.594Z,62.92
2022-10-27T21:28:33.025Z,63.11
2022-10-27T21:31:38.468Z,63.08
2022-10-27T21:34:43.896Z,63.17
2022-10-27T21:37:49.828Z,63.18
2022-10-27T21:40:58.630Z,63.07
2022-10-27T21:44:04.083Z,63.02
2022-10-27T21:47:09.503Z,63.22
2022-10-27T21:50:14.930Z,63.30
2022-10-27T21:53:20.972Z,63.19
2022-10-27T21:56:26.853Z,63.21
2022-10-27T21:59:32.519Z,63.37
2022-10-27T22:02:37.966Z,63.46
2022-10-27T22:05:43.969Z,63.38
2022-10-27T22:08:50.513Z,63.32
2022-10-27T22:11:56.014Z,63.07
2022-10-27T22:15:01.445Z,63.44
2022-10-27T22:18:06.953Z,63.76
2022-10-27T22:21:15.612Z,64.15
2022-10-27T22:24:21.113Z,64.59
2022-10-27T22:27:26.538Z,64.48
2022-10-27T22:30:31.985Z,64.59
2022-10-27T22:33:41.827Z,64.87
2022-10-27T22:36:51.122Z,65.29
2022-10-27T22:39:57.684Z,65.28
2022-10-27T22:43:03.122Z,65.38
2022-10-27T22:46:11.483Z,65.58
2022-10-27T22:49:16.978Z,65.49
2022-10-27T22:52:22.427Z,65.41
2022-10-27T22:55:27.975Z,65.41
2022-10-27T22:58:33.653Z,65.21
2022-10-27T23:01:40.812Z,65.04
2022-10-27T23:04:46.468Z,64.68
2022-10-27T23:07:52.015Z,65.65
2022-10-27T23:10:58.725Z,65.81
2022-10-27T23:14:04.572Z,65.01
2022-10-27T23:17:11.534Z,64.23
2022-10-27T23:20:17.284Z,63.79
2022-10-27T23:23:22.732Z,63.44
2022-10-27T23:26:30.036Z,63.95
2022-10-27T23:29:35.556Z,64.22
2022-10-27T23:32:40.944Z,63.78
2022-10-27T23:35:55.730Z,63.80
2022-10-27T23:39:01.337Z,64.67
2022-10-27T23:42:07.201Z,65.10
2022-10-27T23:45:13.378Z,64.85
2022-10-27T23:48:18.905Z,63.94
2022-10-27T23:51:25.239Z,63.81
2022-10-27T23:54:30.719Z,63.80
2022-10-27T23:57:36.166Z,63.71
